createdAt,value
2019-01-31T00:00:53.351Z,28.30
2019-01-31T00:01:53.341Z,28.08
2019-01-31T00:02:53.331Z,28.08
2019-01-31T00:03:53.320Z,27.78
2019-01-31T00:04:53.307Z,28.08
2019-01-31T00:05:53.586Z,28.09
2019-01-31T00:06:53.286Z,27.98
2019-01-31T00:07:53.273Z,27.78
2019-01-31T00:08:53.263Z,27.78
2019-01-31T00:09:53.250Z,28.18
2019-01-31T00:10:53.240Z,28.08
2019-01-31T00:11:53.236Z,27.78
2019-01-31T00:12:53.217Z,28.08
2019-01-31T00:13:53.205Z,28.08
2019-01-31T00:14:53.195Z,27.98
2019-01-31T00:15:53.184Z,27.80
2019-01-31T00:16:53.172Z,28.09
2019-01-31T00:17:53.481Z,28.18
2019-01-31T00:18:53.148Z,27.70
2019-01-31T00:19:53.225Z,27.68
2019-01-31T00:20:53.127Z,27.68
2019-01-31T00:21:53.119Z,27.70
2019-01-31T00:22:53.106Z,27.78
2019-01-31T00:23:53.112Z,27.78
2019-01-31T00:24:53.080Z,27.70
2019-01-31T00:25:53.071Z,27.68
2019-01-31T00:26:53.058Z,27.70
2019-01-31T00:27:53.049Z,28.00
2019-01-31T00:28:53.036Z,27.58
2019-01-31T00:29:53.035Z,28.08
2019-01-31T00:30:53.014Z,28.08
2019-01-31T00:31:53.088Z,28.08
2019-01-31T00:32:52.989Z,27.98
2019-01-31T00:33:52.979Z,27.88
2019-01-31T00:34:52.968Z,27.98
2019-01-31T00:35:53.282Z,27.98
2019-01-31T00:36:52.946Z,27.98
2019-01-31T00:37:52.934Z,27.78
2019-01-31T00:38:56.714Z,27.88
2019-01-31T00:39:52.912Z,27.98
2019-01-31T00:40:52.901Z,27.98
2019-01-31T00:41:53.167Z,27.98
2019-01-31T00:42:52.880Z,27.88
2019-01-31T00:43:52.866Z,27.88
2019-01-31T00:44:52.856Z,27.98
2019-01-31T00:45:52.845Z,27.78
2019-01-31T00:46:52.833Z,27.80
2019-01-31T00:47:52.832Z,27.20
2019-01-31T00:48:52.812Z,28.18
2019-01-31T00:49:52.800Z,27.19
2019-01-31T00:50:52.789Z,27.38
2019-01-31T00:51:52.780Z,27.19
2019-01-31T00:52:53.692Z,28.00
2019-01-31T00:53:52.774Z,27.88
2019-01-31T00:54:52.743Z,28.00
2019-01-31T00:55:52.731Z,27.98
2019-01-31T00:56:52.722Z,28.08
2019-01-31T00:57:52.708Z,28.00
2019-01-31T00:58:52.697Z,28.00
2019-01-31T00:59:52.694Z,27.70
2019-01-31T01:00:52.675Z,28.08
2019-01-31T01:01:52.664Z,27.98
2019-01-31T01:02:52.653Z,27.98
2019-01-31T01:03:52.742Z,27.78
2019-01-31T01:04:52.631Z,27.68
2019-01-31T01:05:52.627Z,27.88
2019-01-31T01:06:52.611Z,27.89
2019-01-31T01:07:52.598Z,27.98
2019-01-31T01:08:52.585Z,27.19
2019-01-31T01:09:52.575Z,28.00
2019-01-31T01:10:52.565Z,27.28
2019-01-31T01:11:52.822Z,27.89
2019-01-31T01:12:52.543Z,27.88
2019-01-31T01:13:52.529Z,27.28
2019-01-31T01:14:52.517Z,27.19
2019-01-31T01:15:52.506Z,27.78
2019-01-31T01:16:52.495Z,27.08
2019-01-31T01:17:52.805Z,27.68
2019-01-31T01:18:52.472Z,27.70
2019-01-31T01:19:52.461Z,27.19
2019-01-31T01:20:52.450Z,26.98
2019-01-31T01:21:52.440Z,27.78
2019-01-31T01:22:52.427Z,27.78
2019-01-31T01:23:52.424Z,27.48
2019-01-31T01:24:52.405Z,27.68
2019-01-31T01:25:52.394Z,27.68
2019-01-31T01:26:52.382Z,27.38
2019-01-31T01:27:52.372Z,27.38
2019-01-31T01:28:52.365Z,27.38
2019-01-31T01:29:52.369Z,27.38
2019-01-31T01:30:52.337Z,27.48
2019-01-31T01:31:52.326Z,27.58
2019-01-31T01:32:52.324Z,27.48
2019-01-31T01:33:52.306Z,27.58
2019-01-31T01:35:01.175Z,27.58
2019-01-31T01:35:53.722Z,27.48
2019-01-31T01:36:52.270Z,27.88
2019-01-31T01:37:52.259Z,27.28
2019-01-31T01:38:52.246Z,27.88
2019-01-31T01:39:52.238Z,27.58
2019-01-31T01:40:52.225Z,27.78
2019-01-31T01:41:52.221Z,27.78
2019-01-31T01:42:52.202Z,27.78
2019-01-31T01:43:52.191Z,27.78
2019-01-31T01:44:52.179Z,28.18
2019-01-31T01:45:52.168Z,27.58
2019-01-31T01:46:52.159Z,27.58
2019-01-31T01:47:52.437Z,27.58
2019-01-31T01:48:52.133Z,28.08
2019-01-31T01:49:52.122Z,27.78
2019-01-31T01:50:52.112Z,27.58
2019-01-31T01:51:52.100Z,28.18
2019-01-31T01:52:52.092Z,28.07
2019-01-31T01:53:52.092Z,27.77
2019-01-31T01:54:52.068Z,27.87
2019-01-31T01:55:52.083Z,28.27
2019-01-31T01:56:52.044Z,28.57
2019-01-31T01:57:52.035Z,30.57
2019-01-31T01:58:52.023Z,31.76
2019-01-31T01:59:52.016Z,31.16
2019-01-31T02:00:51.999Z,30.27
2019-01-31T02:01:51.993Z,29.77
2019-01-31T02:02:51.977Z,30.87
2019-01-31T02:03:51.966Z,30.66
2019-01-31T02:04:51.954Z,31.26
2019-01-31T02:05:51.951Z,30.77
2019-01-31T02:06:51.931Z,29.97
2019-01-31T02:07:51.922Z,29.97
2019-01-31T02:08:51.913Z,29.86
2019-01-31T02:09:51.898Z,29.67
2019-01-31T02:10:51.887Z,29.86
2019-01-31T02:11:52.202Z,29.97
2019-01-31T02:12:51.863Z,29.47
2019-01-31T02:13:51.854Z,29.57
2019-01-31T02:14:51.843Z,29.67
2019-01-31T02:15:51.830Z,29.36
2019-01-31T02:16:51.818Z,29.47
2019-01-31T02:17:51.815Z,29.67
2019-01-31T02:18:51.796Z,29.57
2019-01-31T02:19:51.789Z,29.57
2019-01-31T02:20:51.774Z,29.57
2019-01-31T02:21:51.763Z,29.57
2019-01-31T02:22:51.752Z,29.57
2019-01-31T02:23:52.024Z,29.47
2019-01-31T02:24:51.745Z,29.47
2019-01-31T02:25:51.717Z,29.57
2019-01-31T02:26:51.706Z,29.57
2019-01-31T02:27:51.695Z,29.67
2019-01-31T02:28:51.683Z,29.57
2019-01-31T02:29:51.678Z,29.57
2019-01-31T02:30:51.662Z,28.97
2019-01-31T02:31:51.652Z,29.47
2019-01-31T02:32:51.637Z,28.47
2019-01-31T02:33:51.627Z,28.37
2019-01-31T02:34:51.616Z,28.97
2019-01-31T02:35:51.628Z,28.87
2019-01-31T02:36:51.594Z,28.77
2019-01-31T02:37:51.584Z,28.77
2019-01-31T02:38:51.572Z,28.97
2019-01-31T02:39:51.563Z,28.97
2019-01-31T02:40:51.549Z,28.77
2019-01-31T02:41:51.545Z,29.06
2019-01-31T02:42:51.526Z,29.06
2019-01-31T02:43:51.515Z,29.06
2019-01-31T02:44:51.505Z,28.77
2019-01-31T02:45:51.492Z,28.77
2019-01-31T02:46:51.531Z,28.87
2019-01-31T02:47:51.805Z,29.27
2019-01-31T02:48:51.462Z,28.97
2019-01-31T02:49:51.448Z,28.97
2019-01-31T02:50:51.437Z,28.57
2019-01-31T02:51:51.426Z,28.97
2019-01-31T02:52:51.414Z,28.77
2019-01-31T02:53:51.409Z,28.77
2019-01-31T02:54:51.391Z,28.47
2019-01-31T02:55:51.380Z,28.77
2019-01-31T02:56:51.369Z,28.77
2019-01-31T02:57:51.357Z,28.87
2019-01-31T02:58:51.348Z,28.07
2019-01-31T02:59:51.628Z,28.37
2019-01-31T03:00:51.332Z,28.48
2019-01-31T03:01:51.318Z,28.08
2019-01-31T03:02:51.301Z,28.48
2019-01-31T03:03:51.292Z,28.07
2019-01-31T03:04:51.278Z,27.97
2019-01-31T03:05:51.273Z,28.17
2019-01-31T03:06:51.257Z,28.37
2019-01-31T03:07:51.248Z,28.27
2019-01-31T03:08:51.235Z,28.07
2019-01-31T03:09:54.894Z,28.47
2019-01-31T03:10:51.214Z,28.58
2019-01-31T03:11:51.206Z,28.37
2019-01-31T03:12:51.188Z,28.37
2019-01-31T03:13:51.177Z,28.27
2019-01-31T03:14:51.166Z,28.78
2019-01-31T03:15:51.156Z,28.57
2019-01-31T03:16:51.145Z,28.57
2019-01-31T03:17:51.152Z,28.08
2019-01-31T03:18:51.121Z,28.28
2019-01-31T03:19:51.112Z,28.07
2019-01-31T03:20:51.098Z,28.07
2019-01-31T03:21:51.089Z,28.27
2019-01-31T03:22:51.079Z,28.28
2019-01-31T03:23:51.405Z,28.07
2019-01-31T03:24:51.057Z,27.98
2019-01-31T03:25:51.042Z,28.28
2019-01-31T03:26:51.031Z,28.27
2019-01-31T03:27:51.023Z,28.37
2019-01-31T03:28:51.008Z,28.17
2019-01-31T03:29:51.286Z,28.48
2019-01-31T03:30:50.987Z,28.08
2019-01-31T03:31:51.000Z,28.08
2019-01-31T03:32:50.966Z,28.48
2019-01-31T03:33:50.951Z,28.28
2019-01-31T03:34:50.940Z,28.18
2019-01-31T03:35:50.936Z,28.38
2019-01-31T03:36:50.918Z,28.28
2019-01-31T03:37:50.908Z,28.38
2019-01-31T03:38:50.898Z,28.28
2019-01-31T03:39:50.885Z,27.47
2019-01-31T03:40:50.875Z,28.18
2019-01-31T03:41:50.884Z,28.08
2019-01-31T03:42:50.854Z,28.18
2019-01-31T03:43:50.839Z,28.18
2019-01-31T03:44:50.827Z,28.18
2019-01-31T03:45:50.817Z,28.18
2019-01-31T03:46:50.822Z,27.48
2019-01-31T03:47:50.804Z,27.88
2019-01-31T03:48:50.783Z,27.68
2019-01-31T03:49:50.771Z,28.28
2019-01-31T03:50:50.759Z,28.08
2019-01-31T03:51:50.752Z,28.18
2019-01-31T03:52:50.738Z,27.88
2019-01-31T03:53:52.583Z,27.38
2019-01-31T03:54:50.724Z,28.28
2019-01-31T03:55:50.704Z,27.88
2019-01-31T03:56:50.695Z,27.68
2019-01-31T03:57:50.684Z,27.88
2019-01-31T03:58:50.670Z,27.88
2019-01-31T03:59:51.009Z,27.68
2019-01-31T04:00:50.657Z,27.68
2019-01-31T04:01:50.637Z,27.87
2019-01-31T04:02:50.642Z,27.78
2019-01-31T04:03:50.613Z,27.68
2019-01-31T04:04:50.604Z,27.88
2019-01-31T04:05:50.614Z,27.88
2019-01-31T04:06:50.579Z,27.88
2019-01-31T04:07:50.569Z,27.58
2019-01-31T04:08:50.559Z,27.48
2019-01-31T04:09:50.546Z,27.48
2019-01-31T04:10:50.536Z,27.68
2019-01-31T04:11:50.546Z,28.08
2019-01-31T04:12:50.513Z,27.88
2019-01-31T04:13:50.502Z,27.78
2019-01-31T04:14:50.494Z,27.78
2019-01-31T04:15:50.480Z,27.98
2019-01-31T04:16:50.474Z,28.18
2019-01-31T04:17:50.481Z,27.98
2019-01-31T04:18:50.446Z,27.98
2019-01-31T04:19:50.437Z,28.08
2019-01-31T04:20:51.196Z,28.28
2019-01-31T04:21:50.413Z,27.68
2019-01-31T04:22:50.402Z,28.08
2019-01-31T04:23:50.399Z,28.08
2019-01-31T04:24:50.379Z,27.78
2019-01-31T04:25:50.366Z,28.18
2019-01-31T04:26:50.354Z,27.78
2019-01-31T04:27:50.350Z,27.78
2019-01-31T04:28:50.333Z,27.88
2019-01-31T04:29:51.620Z,28.08
2019-01-31T04:30:50.309Z,28.08
2019-01-31T04:31:50.306Z,28.38
2019-01-31T04:32:50.286Z,28.08
2019-01-31T04:33:50.275Z,27.78
2019-01-31T04:34:50.263Z,27.78
2019-01-31T04:35:50.541Z,27.68
2019-01-31T04:36:50.242Z,27.68
2019-01-31T04:37:50.230Z,28.08
2019-01-31T04:38:50.219Z,28.08
2019-01-31T04:39:50.207Z,27.98
2019-01-31T04:40:50.198Z,27.88
2019-01-31T04:41:50.192Z,27.98
2019-01-31T04:42:50.174Z,27.88
2019-01-31T04:43:50.166Z,27.88
2019-01-31T04:44:50.152Z,28.08
2019-01-31T04:45:50.142Z,27.88
2019-01-31T04:46:50.134Z,27.88
2019-01-31T04:47:50.123Z,27.19
2019-01-31T04:48:50.107Z,27.38
2019-01-31T04:49:50.122Z,27.88
2019-01-31T04:50:50.084Z,27.68
2019-01-31T04:51:50.072Z,27.19
2019-01-31T04:52:50.061Z,27.78
2019-01-31T04:53:50.070Z,27.19
2019-01-31T04:54:50.039Z,27.48
2019-01-31T04:55:50.028Z,27.78
2019-01-31T04:56:50.016Z,27.48
2019-01-31T04:57:50.005Z,27.48
2019-01-31T04:58:50.169Z,27.68
2019-01-31T04:59:49.995Z,26.98
2019-01-31T05:00:49.971Z,27.68
2019-01-31T05:01:49.959Z,26.98
2019-01-31T05:02:49.962Z,27.68
2019-01-31T05:03:49.938Z,27.68
2019-01-31T05:04:49.926Z,27.48
2019-01-31T05:05:50.209Z,27.38
2019-01-31T05:06:49.903Z,27.48
2019-01-31T05:07:49.892Z,27.48
2019-01-31T05:08:49.881Z,27.48
2019-01-31T05:09:49.869Z,27.48
2019-01-31T05:10:49.858Z,27.38
2019-01-31T05:11:50.178Z,27.78
2019-01-31T05:12:49.836Z,27.38
2019-01-31T05:13:49.825Z,27.28
2019-01-31T05:14:49.814Z,27.58
2019-01-31T05:15:49.802Z,27.78
2019-01-31T05:16:49.792Z,27.38
2019-01-31T05:17:49.788Z,27.88
2019-01-31T05:18:49.771Z,27.78
2019-01-31T05:19:49.758Z,27.68
2019-01-31T05:20:49.746Z,27.88
2019-01-31T05:21:49.736Z,27.98
2019-01-31T05:22:49.724Z,27.68
2019-01-31T05:23:49.722Z,27.68
2019-01-31T05:24:49.703Z,27.68
2019-01-31T05:25:49.692Z,28.18
2019-01-31T05:26:49.805Z,27.88
2019-01-31T05:27:49.669Z,27.78
2019-01-31T05:28:49.657Z,27.88
2019-01-31T05:29:49.668Z,27.59
2019-01-31T05:30:49.635Z,27.78
2019-01-31T05:31:49.625Z,27.58
2019-01-31T05:32:49.668Z,26.78
2019-01-31T05:33:49.601Z,27.88
2019-01-31T05:34:49.589Z,28.08
2019-01-31T05:35:49.584Z,27.88
2019-01-31T05:36:49.570Z,27.28
2019-01-31T05:37:49.555Z,27.28
2019-01-31T05:38:49.544Z,27.08
2019-01-31T05:39:49.533Z,26.78
2019-01-31T05:40:55.874Z,26.68
2019-01-31T05:41:50.798Z,26.78
2019-01-31T05:42:49.502Z,26.68
2019-01-31T05:43:49.490Z,27.19
2019-01-31T05:44:49.477Z,26.68
2019-01-31T05:45:49.466Z,26.68
2019-01-31T05:46:49.456Z,26.70
2019-01-31T05:47:49.772Z,26.58
2019-01-31T05:48:49.434Z,26.88
2019-01-31T05:49:49.420Z,27.28
2019-01-31T05:50:49.409Z,26.68
2019-01-31T05:51:49.400Z,26.78
2019-01-31T05:52:49.387Z,27.28
2019-01-31T05:53:49.387Z,26.58
2019-01-31T05:54:49.365Z,26.68
2019-01-31T05:55:49.352Z,27.28
2019-01-31T05:56:49.341Z,27.28
2019-01-31T05:57:49.331Z,27.19
2019-01-31T05:58:49.318Z,26.78
2019-01-31T05:59:49.327Z,26.88
2019-01-31T06:00:49.298Z,26.68
2019-01-31T06:01:49.285Z,26.98
2019-01-31T06:02:49.274Z,27.19
2019-01-31T06:03:49.261Z,27.28
2019-01-31T06:04:49.250Z,26.68
2019-01-31T06:05:50.836Z,26.98
2019-01-31T06:06:49.229Z,26.98
2019-01-31T06:07:49.215Z,26.68
2019-01-31T06:08:49.205Z,27.08
2019-01-31T06:09:49.198Z,27.08
2019-01-31T06:10:49.183Z,27.38
2019-01-31T06:11:49.180Z,26.98
2019-01-31T06:12:49.160Z,26.88
2019-01-31T06:13:49.148Z,27.19
2019-01-31T06:14:49.137Z,27.08
2019-01-31T06:15:49.127Z,27.20
2019-01-31T06:16:49.115Z,26.98
2019-01-31T06:17:49.114Z,26.78
2019-01-31T06:18:49.094Z,27.20
2019-01-31T06:19:49.082Z,27.08
2019-01-31T06:20:49.074Z,26.98
2019-01-31T06:21:49.060Z,27.09
2019-01-31T06:22:49.048Z,27.28
2019-01-31T06:23:49.043Z,26.98
2019-01-31T06:24:49.025Z,27.08
2019-01-31T06:25:49.024Z,26.68
2019-01-31T06:26:49.002Z,26.98
2019-01-31T06:27:48.991Z,27.20
2019-01-31T06:28:48.979Z,27.28
2019-01-31T06:29:48.978Z,27.38
2019-01-31T06:30:48.957Z,26.79
2019-01-31T06:31:48.949Z,26.68
2019-01-31T06:32:48.935Z,26.68
2019-01-31T06:33:48.925Z,26.78
2019-01-31T06:34:48.913Z,26.68
2019-01-31T06:35:49.186Z,26.78
2019-01-31T06:36:48.890Z,26.48
2019-01-31T06:37:48.879Z,26.68
2019-01-31T06:38:48.867Z,27.38
2019-01-31T06:39:48.855Z,26.68
2019-01-31T06:40:48.850Z,27.28
2019-01-31T06:41:48.854Z,26.78
2019-01-31T06:42:48.822Z,26.89
2019-01-31T06:43:48.813Z,27.19
2019-01-31T06:44:48.801Z,27.20
2019-01-31T06:45:48.789Z,27.19
2019-01-31T06:46:48.777Z,27.19
2019-01-31T06:47:49.093Z,27.28
2019-01-31T06:48:48.754Z,26.68
2019-01-31T06:49:48.743Z,27.19
2019-01-31T06:50:48.732Z,26.68
2019-01-31T06:51:48.721Z,27.19
2019-01-31T06:52:48.709Z,26.58
2019-01-31T06:53:48.704Z,27.19
2019-01-31T06:54:48.687Z,26.68
2019-01-31T06:55:48.675Z,26.98
2019-01-31T06:56:48.757Z,27.00
2019-01-31T06:57:48.653Z,27.20
2019-01-31T06:58:48.641Z,26.98
2019-01-31T06:59:48.923Z,27.28
2019-01-31T07:00:48.620Z,26.98
2019-01-31T07:01:48.608Z,26.98
2019-01-31T07:02:48.597Z,27.20
2019-01-31T07:03:48.586Z,27.00
2019-01-31T07:04:48.578Z,26.98
2019-01-31T07:05:48.570Z,26.98
2019-01-31T07:06:48.552Z,27.28
2019-01-31T07:07:48.542Z,26.98
2019-01-31T07:08:48.529Z,26.98
2019-01-31T07:09:48.519Z,26.98
2019-01-31T07:10:48.508Z,26.98
2019-01-31T07:11:48.506Z,27.08
2019-01-31T07:12:48.483Z,26.98
2019-01-31T07:13:48.473Z,26.98
2019-01-31T07:14:48.462Z,26.78
2019-01-31T07:15:48.452Z,26.98
2019-01-31T07:16:48.440Z,26.98
2019-01-31T07:17:48.435Z,26.68
2019-01-31T07:18:48.417Z,26.98
2019-01-31T07:19:48.405Z,27.48
2019-01-31T07:20:48.394Z,27.38
2019-01-31T07:21:48.385Z,27.08
2019-01-31T07:22:48.372Z,26.68
2019-01-31T07:23:48.371Z,26.98
2019-01-31T07:24:48.353Z,27.19
2019-01-31T07:25:48.338Z,27.50
2019-01-31T07:26:48.326Z,26.98
2019-01-31T07:27:48.315Z,27.19
2019-01-31T07:28:48.308Z,26.78
2019-01-31T07:29:48.623Z,27.19
2019-01-31T07:30:48.282Z,26.78
2019-01-31T07:31:48.270Z,27.19
2019-01-31T07:32:48.259Z,26.88
2019-01-31T07:33:48.247Z,27.19
2019-01-31T07:34:48.236Z,26.88
2019-01-31T07:35:48.559Z,26.98
2019-01-31T07:36:48.217Z,26.88
2019-01-31T07:37:48.203Z,27.20
2019-01-31T07:38:48.191Z,26.78
2019-01-31T07:39:48.180Z,27.08
2019-01-31T07:40:48.169Z,27.48
2019-01-31T07:41:49.860Z,26.79
2019-01-31T07:42:48.146Z,26.88
2019-01-31T07:43:48.136Z,26.98
2019-01-31T07:44:48.125Z,26.98
2019-01-31T07:45:48.112Z,27.08
2019-01-31T07:46:48.102Z,26.98
2019-01-31T07:47:48.100Z,27.08
2019-01-31T07:48:48.079Z,26.88
2019-01-31T07:49:48.067Z,26.98
2019-01-31T07:50:48.057Z,27.08
2019-01-31T07:51:48.045Z,26.98
2019-01-31T07:52:48.034Z,27.08
2019-01-31T07:53:48.367Z,27.29
2019-01-31T07:54:48.011Z,27.00
2019-01-31T07:55:47.999Z,27.19
2019-01-31T07:56:47.989Z,27.09
2019-01-31T07:57:47.979Z,27.28
2019-01-31T07:58:47.966Z,26.98
2019-01-31T07:59:48.279Z,27.08
2019-01-31T08:00:47.944Z,27.28
2019-01-31T08:01:47.933Z,27.38
2019-01-31T08:02:47.921Z,27.28
2019-01-31T08:03:47.910Z,27.28
2019-01-31T08:04:47.899Z,26.98
2019-01-31T08:05:47.894Z,27.19
2019-01-31T08:06:47.875Z,27.38
2019-01-31T08:07:47.865Z,27.29
2019-01-31T08:08:47.853Z,27.19
2019-01-31T08:09:47.843Z,26.58
2019-01-31T08:10:47.835Z,27.38
2019-01-31T08:11:52.785Z,27.38
2019-01-31T08:12:48.809Z,27.08
2019-01-31T08:13:47.798Z,27.09
2019-01-31T08:14:47.785Z,26.89
2019-01-31T08:15:47.775Z,26.78
2019-01-31T08:16:47.763Z,26.88
2019-01-31T08:17:48.075Z,27.58
2019-01-31T08:18:47.741Z,27.20
2019-01-31T08:19:47.731Z,27.48
2019-01-31T08:20:47.719Z,27.00
2019-01-31T08:21:47.707Z,26.98
2019-01-31T08:22:47.697Z,27.08
2019-01-31T08:23:47.691Z,27.38
2019-01-31T08:24:47.673Z,27.59
2019-01-31T08:25:47.662Z,27.08
2019-01-31T08:26:47.650Z,26.98
2019-01-31T08:27:47.639Z,27.48
2019-01-31T08:28:47.628Z,27.39
2019-01-31T08:29:47.906Z,27.48
2019-01-31T08:30:47.609Z,27.39
2019-01-31T08:31:47.594Z,27.58
2019-01-31T08:32:47.584Z,27.48
2019-01-31T08:33:47.572Z,27.58
2019-01-31T08:34:47.563Z,27.48
2019-01-31T08:35:47.556Z,27.19
2019-01-31T08:36:47.538Z,27.20
2019-01-31T08:37:47.527Z,27.38
2019-01-31T08:38:47.530Z,27.38
2019-01-31T08:39:47.505Z,27.38
2019-01-31T08:40:47.494Z,27.58
2019-01-31T08:41:47.811Z,26.98
2019-01-31T08:42:47.471Z,27.38
2019-01-31T08:43:47.459Z,27.19
2019-01-31T08:44:47.448Z,27.19
2019-01-31T08:45:47.441Z,27.28
2019-01-31T08:46:47.426Z,27.28
2019-01-31T08:47:47.421Z,27.38
2019-01-31T08:48:47.402Z,27.08
2019-01-31T08:49:47.393Z,27.38
2019-01-31T08:50:47.381Z,27.58
2019-01-31T08:51:47.369Z,27.38
2019-01-31T08:52:47.358Z,27.38
2019-01-31T08:53:47.355Z,27.19
2019-01-31T08:54:47.337Z,26.58
2019-01-31T08:55:47.692Z,26.78
2019-01-31T08:56:47.316Z,27.38
2019-01-31T08:57:47.695Z,27.19
2019-01-31T08:58:47.290Z,26.78
2019-01-31T08:59:47.600Z,26.58
2019-01-31T09:00:47.267Z,27.29
2019-01-31T09:01:47.257Z,27.38
2019-01-31T09:02:47.246Z,26.78
2019-01-31T09:03:47.236Z,26.78
2019-01-31T09:04:47.223Z,26.78
2019-01-31T09:05:47.221Z,27.19
2019-01-31T09:06:47.199Z,26.78
2019-01-31T09:07:47.190Z,26.98
2019-01-31T09:08:47.178Z,26.88
2019-01-31T09:09:47.169Z,26.98
2019-01-31T09:10:47.156Z,26.98
2019-01-31T09:11:47.153Z,26.39
2019-01-31T09:12:47.133Z,26.18
2019-01-31T09:13:47.123Z,26.88
2019-01-31T09:14:47.113Z,26.88
2019-01-31T09:15:47.099Z,26.28
2019-01-31T09:16:47.087Z,26.78
2019-01-31T09:17:47.086Z,26.68
2019-01-31T09:18:47.065Z,26.68
2019-01-31T09:19:47.062Z,26.68
2019-01-31T09:20:47.067Z,26.28
2019-01-31T09:21:47.031Z,26.78
2019-01-31T09:22:47.021Z,26.88
2019-01-31T09:23:47.342Z,26.88
2019-01-31T09:24:46.998Z,26.88
2019-01-31T09:25:46.986Z,27.08
2019-01-31T09:26:46.975Z,26.48
2019-01-31T09:27:46.964Z,27.08
2019-01-31T09:28:46.952Z,26.18
2019-01-31T09:29:46.949Z,26.78
2019-01-31T09:30:46.931Z,26.18
2019-01-31T09:31:46.919Z,26.58
2019-01-31T09:32:46.909Z,26.68
2019-01-31T09:33:46.896Z,26.29
2019-01-31T09:34:46.894Z,26.18
2019-01-31T09:35:47.165Z,27.08
2019-01-31T09:36:46.865Z,27.38
2019-01-31T09:37:46.852Z,27.38
2019-01-31T09:38:46.844Z,27.08
2019-01-31T09:39:46.829Z,26.78
2019-01-31T09:40:46.819Z,27.19
2019-01-31T09:41:47.134Z,26.78
2019-01-31T09:42:46.795Z,27.38
2019-01-31T09:43:46.785Z,27.38
2019-01-31T09:44:46.778Z,27.38
2019-01-31T09:45:46.762Z,27.38
2019-01-31T09:46:46.752Z,26.78
2019-01-31T09:47:46.749Z,26.78
2019-01-31T09:48:46.733Z,26.98
2019-01-31T09:49:46.718Z,26.98
2019-01-31T09:50:46.797Z,27.28
2019-01-31T09:51:46.694Z,26.78
2019-01-31T09:52:46.684Z,27.28
2019-01-31T09:53:46.685Z,26.98
2019-01-31T09:54:46.680Z,27.19
2019-01-31T09:55:46.649Z,27.08
2019-01-31T09:56:46.639Z,26.88
2019-01-31T09:57:46.627Z,26.98
2019-01-31T09:58:46.615Z,26.88
2019-01-31T09:59:46.616Z,26.98
2019-01-31T10:00:46.593Z,27.08
2019-01-31T10:01:46.582Z,26.78
2019-01-31T10:02:46.571Z,26.98
2019-01-31T10:03:46.561Z,26.98
2019-01-31T10:04:46.548Z,27.19
2019-01-31T10:05:46.545Z,27.08
2019-01-31T10:06:46.550Z,27.08
2019-01-31T10:07:46.515Z,27.38
2019-01-31T10:08:46.505Z,26.78
2019-01-31T10:09:46.491Z,26.98
2019-01-31T10:10:46.482Z,26.68
2019-01-31T10:11:46.547Z,26.97
2019-01-31T10:12:46.469Z,27.19
2019-01-31T10:13:46.446Z,27.28
2019-01-31T10:14:46.498Z,27.28
2019-01-31T10:15:46.438Z,27.17
2019-01-31T10:16:46.973Z,27.27
2019-01-31T10:17:46.429Z,27.19
2019-01-31T10:18:46.467Z,27.17
2019-01-31T10:19:46.379Z,27.17
2019-01-31T10:20:46.388Z,27.17
2019-01-31T10:21:46.357Z,26.97
2019-01-31T10:22:46.351Z,26.97
2019-01-31T10:23:46.381Z,27.07
2019-01-31T10:24:46.339Z,27.17
2019-01-31T10:25:46.311Z,26.77
2019-01-31T10:26:46.301Z,26.97
2019-01-31T10:27:46.289Z,26.97
2019-01-31T10:28:46.277Z,27.07
2019-01-31T10:29:46.289Z,26.77
2019-01-31T10:30:46.255Z,27.06
2019-01-31T10:31:46.245Z,26.97
2019-01-31T10:32:46.234Z,26.97
2019-01-31T10:33:46.228Z,27.17
2019-01-31T10:34:46.212Z,26.96
2019-01-31T10:35:46.206Z,26.96
2019-01-31T10:36:46.188Z,27.07
2019-01-31T10:37:46.177Z,27.15
2019-01-31T10:38:46.166Z,27.15
2019-01-31T10:39:46.158Z,27.26
2019-01-31T10:40:46.143Z,27.36
2019-01-31T10:41:46.464Z,26.86
2019-01-31T10:42:51.758Z,27.15
2019-01-31T10:43:47.107Z,27.14
2019-01-31T10:44:46.098Z,26.94
2019-01-31T10:45:46.086Z,27.04
2019-01-31T10:46:46.075Z,26.94
2019-01-31T10:47:46.076Z,26.64
2019-01-31T10:48:46.053Z,27.44
2019-01-31T10:49:46.045Z,27.34
2019-01-31T10:50:46.032Z,26.94
2019-01-31T10:51:46.019Z,26.64
2019-01-31T10:52:46.007Z,26.94
2019-01-31T10:53:46.005Z,27.04
2019-01-31T10:54:45.985Z,26.75
2019-01-31T10:55:45.974Z,27.64
2019-01-31T10:56:45.964Z,27.04
2019-01-31T10:57:45.955Z,26.93
2019-01-31T10:58:45.942Z,26.84
2019-01-31T10:59:45.942Z,26.93
2019-01-31T11:00:45.917Z,27.33
2019-01-31T11:01:45.913Z,26.93
2019-01-31T11:02:47.863Z,25.84
2019-01-31T11:03:45.884Z,26.23
2019-01-31T11:04:45.874Z,25.73
2019-01-31T11:05:45.869Z,25.13
2019-01-31T11:06:45.851Z,24.84
2019-01-31T11:07:45.841Z,24.54
2019-01-31T11:08:45.827Z,24.55
2019-01-31T11:09:45.816Z,24.54
2019-01-31T11:10:45.804Z,23.64
2019-01-31T11:11:45.801Z,23.74
2019-01-31T11:12:45.781Z,23.55
2019-01-31T11:13:45.771Z,23.64
2019-01-31T11:14:45.761Z,23.95
2019-01-31T11:15:45.749Z,23.75
2019-01-31T11:16:45.738Z,23.95
2019-01-31T11:17:45.734Z,23.95
2019-01-31T11:18:45.715Z,23.95
2019-01-31T11:19:45.706Z,23.95
2019-01-31T11:20:45.693Z,24.24
2019-01-31T11:21:45.682Z,24.04
2019-01-31T11:22:45.674Z,24.44
2019-01-31T11:23:45.983Z,23.44
2019-01-31T11:24:45.647Z,23.74
2019-01-31T11:25:45.637Z,23.64
2019-01-31T11:26:45.626Z,22.84
2019-01-31T11:27:45.617Z,23.44
2019-01-31T11:28:45.603Z,23.74
2019-01-31T11:29:45.861Z,23.04
2019-01-31T11:30:45.581Z,23.14
2019-01-31T11:31:45.569Z,22.94
2019-01-31T11:32:45.557Z,23.24
2019-01-31T11:33:45.549Z,24.33
2019-01-31T11:34:45.536Z,23.84
2019-01-31T11:35:45.534Z,24.24
2019-01-31T11:36:45.514Z,23.84
2019-01-31T11:37:45.502Z,24.44
2019-01-31T11:38:45.490Z,23.94
2019-01-31T11:39:45.478Z,24.13
2019-01-31T11:40:45.466Z,23.93
2019-01-31T11:41:45.484Z,24.22
2019-01-31T11:42:45.447Z,24.21
2019-01-31T11:43:45.433Z,24.11
2019-01-31T11:44:45.426Z,25.11
2019-01-31T11:45:45.412Z,24.91
2019-01-31T11:46:45.400Z,24.81
2019-01-31T11:47:45.489Z,24.62
2019-01-31T11:48:45.378Z,25.41
2019-01-31T11:49:45.373Z,25.71
2019-01-31T11:50:45.355Z,26.01
2019-01-31T11:51:45.345Z,25.41
2019-01-31T11:52:45.332Z,25.60
2019-01-31T11:53:45.602Z,26.21
2019-01-31T11:54:45.309Z,25.91
2019-01-31T11:55:45.298Z,26.09
2019-01-31T11:56:45.286Z,26.29
2019-01-31T11:57:45.275Z,26.09
2019-01-31T11:58:45.265Z,25.91
2019-01-31T11:59:45.539Z,26.20
2019-01-31T12:00:45.243Z,25.60
2019-01-31T12:01:45.232Z,25.60
2019-01-31T12:02:54.658Z,25.60
2019-01-31T12:03:46.207Z,26.09
2019-01-31T12:04:45.198Z,25.60
2019-01-31T12:05:45.468Z,25.90
2019-01-31T12:06:45.186Z,26.09
2019-01-31T12:07:45.164Z,26.29
2019-01-31T12:08:45.152Z,26.29
2019-01-31T12:09:45.142Z,26.29
2019-01-31T12:10:45.131Z,26.09
2019-01-31T12:11:45.444Z,26.59
2019-01-31T12:12:45.111Z,26.20
2019-01-31T12:13:45.097Z,26.29
2019-01-31T12:14:45.085Z,26.59
2019-01-31T12:15:45.078Z,27.49
2019-01-31T12:16:45.062Z,27.49
2019-01-31T12:17:45.340Z,27.89
2019-01-31T12:18:45.043Z,27.99
2019-01-31T12:19:45.027Z,27.79
2019-01-31T12:20:45.018Z,28.09
2019-01-31T12:21:45.005Z,28.19
2019-01-31T12:22:44.996Z,28.19
2019-01-31T12:23:45.311Z,28.88
2019-01-31T12:24:44.972Z,28.57
2019-01-31T12:25:44.962Z,28.67
2019-01-31T12:26:44.998Z,28.88
2019-01-31T12:27:44.938Z,29.17
2019-01-31T12:28:44.927Z,28.97
2019-01-31T12:29:45.202Z,28.87
2019-01-31T12:30:44.904Z,28.77
2019-01-31T12:31:44.895Z,29.37
2019-01-31T12:32:44.882Z,29.47
2019-01-31T12:33:44.870Z,29.47
2019-01-31T12:34:44.862Z,29.37
2019-01-31T12:35:45.147Z,29.55
2019-01-31T12:36:44.838Z,30.05
2019-01-31T12:37:44.826Z,29.85
2019-01-31T12:38:44.814Z,30.15
2019-01-31T12:39:44.804Z,29.25
2019-01-31T12:40:44.793Z,29.75
2019-01-31T12:41:45.065Z,29.85
2019-01-31T12:42:44.772Z,29.25
2019-01-31T12:43:44.758Z,30.35
2019-01-31T12:44:44.748Z,30.05
2019-01-31T12:45:44.738Z,30.05
2019-01-31T12:46:44.728Z,30.45
2019-01-31T12:47:44.999Z,30.35
2019-01-31T12:48:44.702Z,30.65
2019-01-31T12:49:44.691Z,29.75
2019-01-31T12:50:44.680Z,29.95
2019-01-31T12:51:44.670Z,29.75
2019-01-31T12:52:44.662Z,30.75